Portada
METAR-TAF:

METAR-TAF

Aeroports :

Plataforma petroliera

Troll C, Noruega

latitud: 60-53-09N, longitud: 3-36-35E, altitud: 20 m

Observació

L'informe es va fer fa 20 minuts, a les 21:20 UTC
Vent 17 kt del Sud/Sud-Oest
Temperatura 6°C
Humitat 75%
Pressió 993 hPa
Visibilitat 10 km o més

METAR: ENQC 182120Z AUTO 21017KT 9999NDV FEW020/// 06/02 Q0993 W///S6

Hora: 22:40 (21:40 UTC)


TAF: manca

Observacions i pronòstics meteorològics de més de 4000 aeroports (METAR i TAF).

Les estacions disponibles són els punts grocs i vermells al mapa.

Posi el ratolí al punt desitjat per veure el nom de l'estació.

Feu clic per veure les observacions i els pronòstics meteorològics.

Per canviar el mapa: feu clic els botons verds amb una creu de color negre per apropar; al botó verd amb un guió per allunyar la imatge; o en les fletxes verdes per a mapes adjacents.


METAR-TAF: